sensor_id;sensor_type;location;lat;lon;timestamp;temperature;humidity
4399;DHT22;2213;49.720;7.296;2023-09-19T00:02:29;16.90;99.90
4399;DHT22;2213;49.720;7.296;2023-09-19T00:05:01;16.80;99.90
4399;DHT22;2213;49.720;7.296;2023-09-19T00:07:33;16.90;99.90
4399;DHT22;2213;49.720;7.296;2023-09-19T00:10:07;17.00;99.90
4399;DHT22;2213;49.720;7.296;2023-09-19T00:12:42;17.00;99.90
4399;DHT22;2213;49.720;7.296;2023-09-19T00:15:14;17.00;99.90
4399;DHT22;2213;49.720;7.296;2023-09-19T00:17:46;16.90;99.90
4399;DHT22;2213;49.720;7.296;2023-09-19T00:20:15;16.90;99.90
4399;DHT22;2213;49.720;7.296;2023-09-19T00:22:46;16.80;99.90
4399;DHT22;2213;49.720;7.296;2023-09-19T00:25:16;16.80;99.90
4399;DHT22;2213;49.720;7.296;2023-09-19T00:27:48;16.80;99.90
4399;DHT22;2213;49.720;7.296;2023-09-19T00:30:20;16.70;99.90
4399;DHT22;2213;49.720;7.296;2023-09-19T00:32:52;16.70;99.90
4399;DHT22;2213;49.720;7.296;2023-09-19T00:35:22;16.70;99.90
4399;DHT22;2213;49.720;7.296;2023-09-19T00:37:52;16.60;99.90
4399;DHT22;2213;49.720;7.296;2023-09-19T00:40:23;16.60;99.90
4399;DHT22;2213;49.720;7.296;2023-09-19T00:42:58;16.50;99.90
4399;DHT22;2213;49.720;7.296;2023-09-19T00:45:29;16.60;99.90
4399;DHT22;2213;49.720;7.296;2023-09-19T00:48:01;16.50;99.90
4399;DHT22;2213;49.720;7.296;2023-09-19T00:50:41;16.40;99.90
4399;DHT22;2213;49.720;7.296;2023-09-19T00:53:13;16.30;99.90
4399;DHT22;2213;49.720;7.296;2023-09-19T00:55:47;16.20;99.90
4399;DHT22;2213;49.720;7.296;2023-09-19T00:58:19;16.20;99.90
4399;DHT22;2213;49.720;7.296;2023-09-19T01:00:49;16.20;99.90
4399;DHT22;2213;49.720;7.296;2023-09-19T01:03:19;16.20;99.90
4399;DHT22;2213;49.720;7.296;2023-09-19T01:05:50;16.20;99.90
4399;DHT22;2213;49.720;7.296;2023-09-19T01:08:20;16.10;99.90
4399;DHT22;2213;49.720;7.296;2023-09-19T01:10:53;16.10;99.90
4399;DHT22;2213;49.720;7.296;2023-09-19T01:13:34;15.90;99.90
4399;DHT22;2213;49.720;7.296;2023-09-19T01:16:23;16.00;99.90
4399;DHT22;2213;49.720;7.296;2023-09-19T01:19:36;16.00;99.90
4399;DHT22;2213;49.720;7.296;2023-09-19T01:22:31;16.00;99.90
4399;DHT22;2213;49.720;7.296;2023-09-19T01:25:45;15.90;99.90
4399;DHT22;2213;49.720;7.296;2023-09-19T01:28:55;15.80;99.90
4399;DHT22;2213;49.720;7.296;2023-09-19T01:31:38;15.80;99.90
4399;DHT22;2213;49.720;7.296;2023-09-19T01:34:12;15.70;99.90
4399;DHT22;2213;49.720;7.296;2023-09-19T01:36:43;15.70;99.90
4399;DHT22;2213;49.720;7.296;2023-09-19T01:39:13;15.70;99.90
4399;DHT22;2213;49.720;7.296;2023-09-19T01:41:58;15.60;99.90
4399;DHT22;2213;49.720;7.296;2023-09-19T01:44:44;15.60;99.90
4399;DHT22;2213;49.720;7.296;2023-09-19T01:47:28;15.60;99.90
4399;DHT22;2213;49.720;7.296;2023-09-19T01:50:11;15.60;99.90
4399;DHT22;2213;49.720;7.296;2023-09-19T01:52:54;15.50;99.90
4399;DHT22;2213;49.720;7.296;2023-09-19T01:55:30;15.40;99.90
4399;DHT22;2213;49.720;7.296;2023-09-19T01:58:08;15.50;99.90
4399;DHT22;2213;49.720;7.296;2023-09-19T02:00:48;15.40;99.90
4399;DHT22;2213;49.720;7.296;2023-09-19T02:03:22;15.40;99.90
4399;DHT22;2213;49.720;7.296;2023-09-19T02:05:53;15.40;99.90
4399;DHT22;2213;49.720;7.296;2023-09-19T02:08:24;15.40;99.90
4399;DHT22;2213;49.720;7.296;2023-09-19T02:10:54;15.40;99.90
4399;DHT22;2213;49.720;7.296;2023-09-19T02:13:24;15.30;99.90
4399;DHT22;2213;49.720;7.296;2023-09-19T02:15:56;15.30;99.90
4399;DHT22;2213;49.720;7.296;2023-09-19T02:18:29;15.30;99.90
4399;DHT22;2213;49.720;7.296;2023-09-19T02:20:59;15.20;99.90
4399;DHT22;2213;49.720;7.296;2023-09-19T02:23:29;15.20;99.90
4399;DHT22;2213;49.720;7.296;2023-09-19T02:26:00;15.20;99.90
4399;DHT22;2213;49.720;7.296;2023-09-19T02:28:30;15.20;99.90
4399;DHT22;2213;49.720;7.296;2023-09-19T02:31:01;15.10;99.90
4399;DHT22;2213;49.720;7.296;2023-09-19T02:33:34;15.10;99.90
4399;DHT22;2213;49.720;7.296;2023-09-19T02:36:06;15.00;99.90
4399;DHT22;2213;49.720;7.296;2023-09-19T02:38:36;15.00;99.90
4399;DHT22;2213;49.720;7.296;2023-09-19T02:41:07;15.00;99.90
4399;DHT22;2213;49.720;7.296;2023-09-19T02:43:37;15.00;99.90
4399;DHT22;2213;49.720;7.296;2023-09-19T02:46:08;14.90;99.90
4399;DHT22;2213;49.720;7.296;2023-09-19T02:48:41;14.90;99.90
4399;DHT22;2213;49.720;7.296;2023-09-19T02:51:11;14.90;99.90
4399;DHT22;2213;49.720;7.296;2023-09-19T02:53:41;14.90;99.90
4399;DHT22;2213;49.720;7.296;2023-09-19T02:56:12;15.00;99.90
4399;DHT22;2213;49.720;7.296;2023-09-19T02:58:44;15.00;99.90
4399;DHT22;2213;49.720;7.296;2023-09-19T03:01:16;15.10;99.90
4399;DHT22;2213;49.720;7.296;2023-09-19T03:03:49;15.00;99.90
4399;DHT22;2213;49.720;7.296;2023-09-19T03:06:19;14.90;99.90
4399;DHT22;2213;49.720;7.296;2023-09-19T03:08:49;14.90;99.90
4399;DHT22;2213;49.720;7.296;2023-09-19T03:11:20;14.90;99.90
4399;DHT22;2213;49.720;7.296;2023-09-19T03:13:52;15.00;99.90
4399;DHT22;2213;49.720;7.296;2023-09-19T03:16:22;15.00;99.90
4399;DHT22;2213;49.720;7.296;2023-09-19T03:18:54;15.00;99.90
4399;DHT22;2213;49.720;7.296;2023-09-19T03:21:26;15.00;99.90
4399;DHT22;2213;49.720;7.296;2023-09-19T03:23:57;14.90;99.90
4399;DHT22;2213;49.720;7.296;2023-09-19T03:26:28;14.90;99.90
4399;DHT22;2213;49.720;7.296;2023-09-19T03:28:59;15.00;99.90
4399;DHT22;2213;49.720;7.296;2023-09-19T03:31:34;15.00;99.90
4399;DHT22;2213;49.720;7.296;2023-09-19T03:34:07;15.00;99.90
4399;DHT22;2213;49.720;7.296;2023-09-19T03:36:38;15.00;99.90
4399;DHT22;2213;49.720;7.296;2023-09-19T03:39:09;15.00;99.90
4399;DHT22;2213;49.720;7.296;2023-09-19T03:41:40;14.90;99.90
4399;DHT22;2213;49.720;7.296;2023-09-19T03:44:11;15.00;99.90
4399;DHT22;2213;49.720;7.296;2023-09-19T03:46:41;14.90;99.90
4399;DHT22;2213;49.720;7.296;2023-09-19T03:49:13;15.00;99.90
4399;DHT22;2213;49.720;7.296;2023-09-19T03:51:43;14.90;99.90
4399;DHT22;2213;49.720;7.296;2023-09-19T03:54:14;15.00;99.90
4399;DHT22;2213;49.720;7.296;2023-09-19T03:56:47;14.90;99.90
4399;DHT22;2213;49.720;7.296;2023-09-19T03:59:18;15.00;99.90
4399;DHT22;2213;49.720;7.296;2023-09-19T04:01:49;15.00;99.90
4399;DHT22;2213;49.720;7.296;2023-09-19T04:04:25;15.00;99.90
4399;DHT22;2213;49.720;7.296;2023-09-19T04:06:56;15.10;99.90
4399;DHT22;2213;49.720;7.296;2023-09-19T04:09:26;15.00;99.90
4399;DHT22;2213;49.720;7.296;2023-09-19T04:11:57;14.90;99.90
4399;DHT22;2213;49.720;7.296;2023-09-19T04:14:27;15.00;99.90
4399;DHT22;2213;49.720;7.296;2023-09-19T04:16:57;14.90;99.90
4399;DHT22;2213;49.720;7.296;2023-09-19T04:19:29;14.90;99.90
4399;DHT22;2213;49.720;7.296;2023-09-19T04:21:59;14.90;99.90
4399;DHT22;2213;49.720;7.296;2023-09-19T04:24:29;14.90;99.90
4399;DHT22;2213;49.720;7.296;2023-09-19T04:27:00;14.90;99.90
4399;DHT22;2213;49.720;7.296;2023-09-19T04:29:30;14.90;99.90
4399;DHT22;2213;49.720;7.296;2023-09-19T04:31:59;15.00;99.90
4399;DHT22;2213;49.720;7.296;2023-09-19T04:34:33;14.90;99.90
4399;DHT22;2213;49.720;7.296;2023-09-19T04:37:03;14.90;99.90
4399;DHT22;2213;49.720;7.296;2023-09-19T04:39:32;14.80;99.90
4399;DHT22;2213;49.720;7.296;2023-09-19T04:42:04;14.90;99.90
4399;DHT22;2213;49.720;7.296;2023-09-19T04:44:35;14.90;99.90
4399;DHT22;2213;49.720;7.296;2023-09-19T04:47:06;14.80;99.90
4399;DHT22;2213;49.720;7.296;2023-09-19T04:49:37;14.70;99.90
4399;DHT22;2213;49.720;7.296;2023-09-19T04:52:09;14.70;99.90
4399;DHT22;2213;49.720;7.296;2023-09-19T04:54:45;14.70;99.90
4399;DHT22;2213;49.720;7.296;2023-09-19T04:57:18;14.60;99.90
4399;DHT22;2213;49.720;7.296;2023-09-19T04:59:49;14.60;99.90
4399;DHT22;2213;49.720;7.296;2023-09-19T05:02:19;14.60;99.90
4399;DHT22;2213;49.720;7.296;2023-09-19T05:04:51;14.60;99.90
4399;DHT22;2213;49.720;7.296;2023-09-19T05:07:21;14.60;99.90
4399;DHT22;2213;49.720;7.296;2023-09-19T05:09:53;14.50;99.90
4399;DHT22;2213;49.720;7.296;2023-09-19T05:12:23;14.50;99.90
4399;DHT22;2213;49.720;7.296;2023-09-19T05:14:55;14.50;99.90
4399;DHT22;2213;49.720;7.296;2023-09-19T05:17:25;14.50;99.90
4399;DHT22;2213;49.720;7.296;2023-09-19T05:19:57;14.60;99.90
4399;DHT22;2213;49.720;7.296;2023-09-19T05:22:28;14.60;99.90
4399;DHT22;2213;49.720;7.296;2023-09-19T05:24:59;14.60;99.90
4399;DHT22;2213;49.720;7.296;2023-09-19T05:27:32;14.60;99.90
4399;DHT22;2213;49.720;7.296;2023-09-19T05:30:03;14.60;99.90
4399;DHT22;2213;49.720;7.296;2023-09-19T05:32:35;14.60;99.90
4399;DHT22;2213;49.720;7.296;2023-09-19T05:35:06;14.60;99.90
4399;DHT22;2213;49.720;7.296;2023-09-19T05:37:37;14.70;99.90
4399;DHT22;2213;49.720;7.296;2023-09-19T05:40:10;14.60;99.90
4399;DHT22;2213;49.720;7.296;2023-09-19T05:42:42;14.70;99.90
4399;DHT22;2213;49.720;7.296;2023-09-19T05:45:13;14.70;99.90
4399;DHT22;2213;49.720;7.296;2023-09-19T05:47:50;14.60;99.90
4399;DHT22;2213;49.720;7.296;2023-09-19T05:50:24;14.70;99.90
4399;DHT22;2213;49.720;7.296;2023-09-19T05:52:54;14.60;99.90
4399;DHT22;2213;49.720;7.296;2023-09-19T05:55:25;14.60;99.90
4399;DHT22;2213;49.720;7.296;2023-09-19T05:57:56;14.60;99.90
4399;DHT22;2213;49.720;7.296;2023-09-19T06:00:26;14.70;99.90
4399;DHT22;2213;49.720;7.296;2023-09-19T06:02:58;14.60;99.90
4399;DHT22;2213;49.720;7.296;2023-09-19T06:05:30;14.60;99.90
4399;DHT22;2213;49.720;7.296;2023-09-19T06:08:01;14.60;99.90
4399;DHT22;2213;49.720;7.296;2023-09-19T06:10:36;14.50;99.90
4399;DHT22;2213;49.720;7.296;2023-09-19T06:13:06;14.50;99.90
4399;DHT22;2213;49.720;7.296;2023-09-19T06:15:37;14.50;99.90
4399;DHT22;2213;49.720;7.296;2023-09-19T06:18:11;14.40;99.90
4399;DHT22;2213;49.720;7.296;2023-09-19T06:20:49;14.50;99.90
4399;DHT22;2213;49.720;7.296;2023-09-19T06:23:20;14.50;99.90
4399;DHT22;2213;49.720;7.296;2023-09-19T06:25:51;14.60;99.90
4399;DHT22;2213;49.720;7.296;2023-09-19T06:28:20;14.60;99.90
4399;DHT22;2213;49.720;7.296;2023-09-19T06:30:53;14.60;99.90
4399;DHT22;2213;49.720;7.296;2023-09-19T06:33:22;14.60;99.90
4399;DHT22;2213;49.720;7.296;2023-09-19T06:35:55;14.60;99.90
4399;DHT22;2213;49.720;7.296;2023-09-19T06:38:28;14.60;99.90
4399;DHT22;2213;49.720;7.296;2023-09-19T06:40:58;14.80;99.90
4399;DHT22;2213;49.720;7.296;2023-09-19T06:43:29;14.80;99.90
4399;DHT22;2213;49.720;7.296;2023-09-19T06:46:02;14.80;99.90
4399;DHT22;2213;49.720;7.296;2023-09-19T06:48:31;14.80;99.90
4399;DHT22;2213;49.720;7.296;2023-09-19T06:51:04;14.80;99.90
4399;DHT22;2213;49.720;7.296;2023-09-19T06:53:34;14.90;99.90
4399;DHT22;2213;49.720;7.296;2023-09-19T06:56:04;14.90;99.90
4399;DHT22;2213;49.720;7.296;2023-09-19T06:58:34;14.90;99.90
4399;DHT22;2213;49.720;7.296;2023-09-19T07:01:06;15.00;99.90
4399;DHT22;2213;49.720;7.296;2023-09-19T07:03:36;15.00;99.90
4399;DHT22;2213;49.720;7.296;2023-09-19T07:06:09;14.90;99.90
4399;DHT22;2213;49.720;7.296;2023-09-19T07:08:40;15.00;99.90
4399;DHT22;2213;49.720;7.296;2023-09-19T07:11:11;15.00;99.90
4399;DHT22;2213;49.720;7.296;2023-09-19T07:13:42;15.10;99.90
4399;DHT22;2213;49.720;7.296;2023-09-19T07:16:12;15.20;99.90
4399;DHT22;2213;49.720;7.296;2023-09-19T07:18:54;15.10;99.90
4399;DHT22;2213;49.720;7.296;2023-09-19T07:21:27;15.10;99.90
4399;DHT22;2213;49.720;7.296;2023-09-19T07:23:59;15.10;99.90
4399;DHT22;2213;49.720;7.296;2023-09-19T07:26:30;15.10;99.90
4399;DHT22;2213;49.720;7.296;2023-09-19T07:29:00;15.10;99.90
4399;DHT22;2213;49.720;7.296;2023-09-19T07:31:30;15.00;99.90
4399;DHT22;2213;49.720;7.296;2023-09-19T07:33:59;15.00;99.90
4399;DHT22;2213;49.720;7.296;2023-09-19T07:36:29;15.20;99.90
4399;DHT22;2213;49.720;7.296;2023-09-19T07:39:00;15.20;99.90
4399;DHT22;2213;49.720;7.296;2023-09-19T07:41:49;15.20;99.90
4399;DHT22;2213;49.720;7.296;2023-09-19T07:44:18;15.30;99.90
4399;DHT22;2213;49.720;7.296;2023-09-19T07:46:48;15.30;99.90
4399;DHT22;2213;49.720;7.296;2023-09-19T07:49:19;15.30;99.90
4399;DHT22;2213;49.720;7.296;2023-09-19T07:51:51;15.30;99.90
4399;DHT22;2213;49.720;7.296;2023-09-19T07:54:23;15.40;99.90
4399;DHT22;2213;49.720;7.296;2023-09-19T07:56:52;15.40;99.90
4399;DHT22;2213;49.720;7.296;2023-09-19T07:59:23;15.40;99.90
4399;DHT22;2213;49.720;7.296;2023-09-19T08:01:54;15.40;99.90
4399;DHT22;2213;49.720;7.296;2023-09-19T08:04:23;15.40;99.90
4399;DHT22;2213;49.720;7.296;2023-09-19T08:06:55;15.40;99.90
4399;DHT22;2213;49.720;7.296;2023-09-19T08:09:26;15.40;99.90
4399;DHT22;2213;49.720;7.296;2023-09-19T08:12:01;15.50;99.90
4399;DHT22;2213;49.720;7.296;2023-09-19T08:14:33;15.50;99.90
4399;DHT22;2213;49.720;7.296;2023-09-19T08:17:02;15.50;99.90
4399;DHT22;2213;49.720;7.296;2023-09-19T08:19:34;15.40;99.90
4399;DHT22;2213;49.720;7.296;2023-09-19T08:22:10;15.40;99.90
4399;DHT22;2213;49.720;7.296;2023-09-19T08:24:40;15.50;99.90
4399;DHT22;2213;49.720;7.296;2023-09-19T08:27:11;15.50;99.90
4399;DHT22;2213;49.720;7.296;2023-09-19T08:29:42;15.50;99.90
4399;DHT22;2213;49.720;7.296;2023-09-19T08:32:12;15.50;99.90
4399;DHT22;2213;49.720;7.296;2023-09-19T08:34:43;15.40;99.90
4399;DHT22;2213;49.720;7.296;2023-09-19T08:37:15;15.50;99.90
4399;DHT22;2213;49.720;7.296;2023-09-19T08:39:45;15.50;99.90
4399;DHT22;2213;49.720;7.296;2023-09-19T08:42:15;15.50;99.90
4399;DHT22;2213;49.720;7.296;2023-09-19T08:44:48;15.60;99.90
4399;DHT22;2213;49.720;7.296;2023-09-19T08:47:21;15.50;99.90
4399;DHT22;2213;49.720;7.296;2023-09-19T08:50:09;15.50;99.90
4399;DHT22;2213;49.720;7.296;2023-09-19T08:52:51;15.50;99.90
4399;DHT22;2213;49.720;7.296;2023-09-19T08:55:28;15.60;99.90
4399;DHT22;2213;49.720;7.296;2023-09-19T08:58:02;15.50;99.90
4399;DHT22;2213;49.720;7.296;2023-09-19T09:00:35;15.50;99.90
4399;DHT22;2213;49.720;7.296;2023-09-19T09:03:05;15.50;99.90
4399;DHT22;2213;49.720;7.296;2023-09-19T09:05:41;15.50;99.90
4399;DHT22;2213;49.720;7.296;2023-09-19T09:08:16;15.60;99.90
4399;DHT22;2213;49.720;7.296;2023-09-19T09:10:49;15.50;99.90
4399;DHT22;2213;49.720;7.296;2023-09-19T09:13:20;15.50;99.90
4399;DHT22;2213;49.720;7.296;2023-09-19T09:15:52;15.50;99.90
4399;DHT22;2213;49.720;7.296;2023-09-19T09:18:22;15.60;99.90
4399;DHT22;2213;49.720;7.296;2023-09-19T09:20:51;15.50;99.90
4399;DHT22;2213;49.720;7.296;2023-09-19T09:23:24;15.60;99.90
4399;DHT22;2213;49.720;7.296;2023-09-19T09:25:58;15.80;99.90
4399;DHT22;2213;49.720;7.296;2023-09-19T09:28:31;15.80;99.90
4399;DHT22;2213;49.720;7.296;2023-09-19T09:31:02;15.90;99.90
4399;DHT22;2213;49.720;7.296;2023-09-19T09:33:36;15.80;99.90
4399;DHT22;2213;49.720;7.296;2023-09-19T09:36:08;15.90;99.90
4399;DHT22;2213;49.720;7.296;2023-09-19T09:38:47;15.90;99.90
4399;DHT22;2213;49.720;7.296;2023-09-19T09:41:18;16.00;99.90
4399;DHT22;2213;49.720;7.296;2023-09-19T09:43:56;15.90;99.90
4399;DHT22;2213;49.720;7.296;2023-09-19T09:46:43;16.00;99.90
4399;DHT22;2213;49.720;7.296;2023-09-19T09:49:47;16.00;99.90
4399;DHT22;2213;49.720;7.296;2023-09-19T09:52:22;16.00;99.90
4399;DHT22;2213;49.720;7.296;2023-09-19T09:55:01;16.00;99.90
4399;DHT22;2213;49.720;7.296;2023-09-19T09:57:35;16.00;99.90
4399;DHT22;2213;49.720;7.296;2023-09-19T10:00:07;16.20;99.90
4399;DHT22;2213;49.720;7.296;2023-09-19T10:02:48;16.10;99.90
4399;DHT22;2213;49.720;7.296;2023-09-19T10:05:19;16.20;99.90
4399;DHT22;2213;49.720;7.296;2023-09-19T10:07:56;16.20;99.90
4399;DHT22;2213;49.720;7.296;2023-09-19T10:10:42;16.30;99.90
4399;DHT22;2213;49.720;7.296;2023-09-19T10:13:21;16.20;99.90
4399;DHT22;2213;49.720;7.296;2023-09-19T10:15:55;16.30;99.90
4399;DHT22;2213;49.720;7.296;2023-09-19T10:18:27;16.30;99.90
4399;DHT22;2213;49.720;7.296;2023-09-19T10:21:02;16.40;99.90
4399;DHT22;2213;49.720;7.296;2023-09-19T10:23:35;16.50;99.90
4399;DHT22;2213;49.720;7.296;2023-09-19T10:26:08;16.50;99.90
4399;DHT22;2213;49.720;7.296;2023-09-19T10:28:40;16.60;99.90
4399;DHT22;2213;49.720;7.296;2023-09-19T10:31:11;16.60;99.90
4399;DHT22;2213;49.720;7.296;2023-09-19T10:33:43;16.70;99.90
4399;DHT22;2213;49.720;7.296;2023-09-19T10:36:13;16.70;99.90
4399;DHT22;2213;49.720;7.296;2023-09-19T10:38:48;16.80;99.90
4399;DHT22;2213;49.720;7.296;2023-09-19T10:41:23;16.70;99.90
4399;DHT22;2213;49.720;7.296;2023-09-19T10:43:55;16.90;99.90
4399;DHT22;2213;49.720;7.296;2023-09-19T10:46:28;16.90;99.90
4399;DHT22;2213;49.720;7.296;2023-09-19T10:48:59;16.90;99.90
4399;DHT22;2213;49.720;7.296;2023-09-19T10:51:39;16.80;99.90
4399;DHT22;2213;49.720;7.296;2023-09-19T10:54:12;16.80;99.90
4399;DHT22;2213;49.720;7.296;2023-09-19T10:56:47;16.90;99.90
4399;DHT22;2213;49.720;7.296;2023-09-19T10:59:20;17.10;99.90
4399;DHT22;2213;49.720;7.296;2023-09-19T11:01:53;17.10;99.90
4399;DHT22;2213;49.720;7.296;2023-09-19T11:04:27;17.10;99.90
4399;DHT22;2213;49.720;7.296;2023-09-19T11:07:01;17.20;99.90
4399;DHT22;2213;49.720;7.296;2023-09-19T11:09:46;17.10;99.90
4399;DHT22;2213;49.720;7.296;2023-09-19T11:12:49;17.20;99.90
4399;DHT22;2213;49.720;7.296;2023-09-19T11:18:52;17.20;99.90
4399;DHT22;2213;49.720;7.296;2023-09-19T11:21:53;17.10;99.90
4399;DHT22;2213;49.720;7.296;2023-09-19T11:24:31;17.00;99.90
4399;DHT22;2213;49.720;7.296;2023-09-19T11:27:14;17.10;99.90
4399;DHT22;2213;49.720;7.296;2023-09-19T11:29:46;17.10;99.90
4399;DHT22;2213;49.720;7.296;2023-09-19T11:36:00;17.10;99.90
4399;DHT22;2213;49.720;7.296;2023-09-19T11:38:58;17.20;99.90
4399;DHT22;2213;49.720;7.296;2023-09-19T11:41:40;17.40;99.90
4399;DHT22;2213;49.720;7.296;2023-09-19T11:44:31;17.40;99.90
4399;DHT22;2213;49.720;7.296;2023-09-19T11:47:09;17.30;99.90
4399;DHT22;2213;49.720;7.296;2023-09-19T11:49:41;17.30;99.90
4399;DHT22;2213;49.720;7.296;2023-09-19T11:52:22;17.40;99.90
4399;DHT22;2213;49.720;7.296;2023-09-19T11:54:55;17.50;99.90
4399;DHT22;2213;49.720;7.296;2023-09-19T11:57:26;17.50;99.90
4399;DHT22;2213;49.720;7.296;2023-09-19T11:59:58;17.50;99.90
4399;DHT22;2213;49.720;7.296;2023-09-19T12:02:39;17.60;99.90
4399;DHT22;2213;49.720;7.296;2023-09-19T12:05:13;17.60;99.90
4399;DHT22;2213;49.720;7.296;2023-09-19T12:07:44;17.70;99.90
4399;DHT22;2213;49.720;7.296;2023-09-19T12:10:15;17.70;99.90
4399;DHT22;2213;49.720;7.296;2023-09-19T12:12:47;17.80;99.90
4399;DHT22;2213;49.720;7.296;2023-09-19T12:15:23;17.90;99.90
4399;DHT22;2213;49.720;7.296;2023-09-19T12:17:57;17.90;99.90
4399;DHT22;2213;49.720;7.296;2023-09-19T12:20:42;17.90;99.90
4399;DHT22;2213;49.720;7.296;2023-09-19T12:23:17;17.90;99.90
4399;DHT22;2213;49.720;7.296;2023-09-19T12:25:47;17.90;99.90
4399;DHT22;2213;49.720;7.296;2023-09-19T12:28:21;18.00;99.90
4399;DHT22;2213;49.720;7.296;2023-09-19T12:30:55;17.90;99.90
4399;DHT22;2213;49.720;7.296;2023-09-19T12:33:26;18.00;99.90
4399;DHT22;2213;49.720;7.296;2023-09-19T12:35:57;17.90;99.90
4399;DHT22;2213;49.720;7.296;2023-09-19T12:38:27;17.90;99.90
4399;DHT22;2213;49.720;7.296;2023-09-19T12:41:02;18.00;99.90
4399;DHT22;2213;49.720;7.296;2023-09-19T12:43:34;17.80;99.90
4399;DHT22;2213;49.720;7.296;2023-09-19T12:46:05;18.00;99.90
4399;DHT22;2213;49.720;7.296;2023-09-19T12:48:36;18.10;99.90
4399;DHT22;2213;49.720;7.296;2023-09-19T12:51:11;18.10;99.90
4399;DHT22;2213;49.720;7.296;2023-09-19T12:53:45;18.10;99.90
4399;DHT22;2213;49.720;7.296;2023-09-19T12:56:17;18.20;99.90
4399;DHT22;2213;49.720;7.296;2023-09-19T12:58:53;18.10;99.90
4399;DHT22;2213;49.720;7.296;2023-09-19T13:01:24;18.20;99.90
4399;DHT22;2213;49.720;7.296;2023-09-19T13:04:13;18.30;99.90
4399;DHT22;2213;49.720;7.296;2023-09-19T13:06:48;18.30;99.90
4399;DHT22;2213;49.720;7.296;2023-09-19T13:09:20;18.40;99.90
4399;DHT22;2213;49.720;7.296;2023-09-19T13:11:53;18.40;99.90
4399;DHT22;2213;49.720;7.296;2023-09-19T13:14:23;18.40;99.90
4399;DHT22;2213;49.720;7.296;2023-09-19T13:16:57;18.40;99.90
4399;DHT22;2213;49.720;7.296;2023-09-19T13:19:38;18.40;99.90
4399;DHT22;2213;49.720;7.296;2023-09-19T13:22:36;18.40;99.90
4399;DHT22;2213;49.720;7.296;2023-09-19T13:25:09;18.60;99.90
4399;DHT22;2213;49.720;7.296;2023-09-19T13:27:42;18.60;99.90
4399;DHT22;2213;49.720;7.296;2023-09-19T13:30:13;18.60;99.90
4399;DHT22;2213;49.720;7.296;2023-09-19T13:32:44;18.60;99.90
4399;DHT22;2213;49.720;7.296;2023-09-19T13:35:16;18.80;99.90
4399;DHT22;2213;49.720;7.296;2023-09-19T13:37:48;18.80;99.90
4399;DHT22;2213;49.720;7.296;2023-09-19T13:40:19;18.80;99.90
4399;DHT22;2213;49.720;7.296;2023-09-19T13:42:49;18.90;99.90
4399;DHT22;2213;49.720;7.296;2023-09-19T13:45:22;19.10;99.90
4399;DHT22;2213;49.720;7.296;2023-09-19T13:47:58;19.10;99.90
4399;DHT22;2213;49.720;7.296;2023-09-19T13:50:30;19.10;99.90
4399;DHT22;2213;49.720;7.296;2023-09-19T13:52:59;19.70;99.90
4399;DHT22;2213;49.720;7.296;2023-09-19T13:55:29;19.60;99.90
4399;DHT22;2213;49.720;7.296;2023-09-19T13:57:58;19.60;99.90
4399;DHT22;2213;49.720;7.296;2023-09-19T14:00:27;20.20;99.90
4399;DHT22;2213;49.720;7.296;2023-09-19T14:02:57;20.20;99.90
4399;DHT22;2213;49.720;7.296;2023-09-19T14:05:30;20.20;99.90
4399;DHT22;2213;49.720;7.296;2023-09-19T14:08:00;20.20;99.90
4399;DHT22;2213;49.720;7.296;2023-09-19T14:10:31;20.40;99.90
4399;DHT22;2213;49.720;7.296;2023-09-19T14:13:01;20.30;99.90
4399;DHT22;2213;49.720;7.296;2023-09-19T14:15:32;20.30;99.90
4399;DHT22;2213;49.720;7.296;2023-09-19T14:18:05;20.40;99.90
4399;DHT22;2213;49.720;7.296;2023-09-19T14:20:39;20.50;99.90
4399;DHT22;2213;49.720;7.296;2023-09-19T14:23:09;20.50;99.90
4399;DHT22;2213;49.720;7.296;2023-09-19T14:25:39;20.40;99.90
4399;DHT22;2213;49.720;7.296;2023-09-19T14:28:09;20.30;99.90
4399;DHT22;2213;49.720;7.296;2023-09-19T14:30:39;20.50;99.90
4399;DHT22;2213;49.720;7.296;2023-09-19T14:33:08;20.40;99.90
4399;DHT22;2213;49.720;7.296;2023-09-19T14:35:39;20.40;99.90
4399;DHT22;2213;49.720;7.296;2023-09-19T14:38:08;20.50;99.90
4399;DHT22;2213;49.720;7.296;2023-09-19T14:40:38;20.40;99.90
4399;DHT22;2213;49.720;7.296;2023-09-19T14:43:07;20.30;99.90
4399;DHT22;2213;49.720;7.296;2023-09-19T14:45:38;20.40;99.90
4399;DHT22;2213;49.720;7.296;2023-09-19T14:48:07;20.40;99.90
4399;DHT22;2213;49.720;7.296;2023-09-19T14:50:40;20.50;99.90
4399;DHT22;2213;49.720;7.296;2023-09-19T14:53:12;20.60;99.90
4399;DHT22;2213;49.720;7.296;2023-09-19T14:55:42;20.60;99.90
4399;DHT22;2213;49.720;7.296;2023-09-19T14:58:13;20.60;99.90
4399;DHT22;2213;49.720;7.296;2023-09-19T15:00:42;20.60;99.90
4399;DHT22;2213;49.720;7.296;2023-09-19T15:03:13;20.70;99.90
4399;DHT22;2213;49.720;7.296;2023-09-19T15:05:45;20.60;99.90
4399;DHT22;2213;49.720;7.296;2023-09-19T15:08:15;20.50;99.90
4399;DHT22;2213;49.720;7.296;2023-09-19T15:10:50;20.30;99.90
4399;DHT22;2213;49.720;7.296;2023-09-19T15:13:21;20.50;99.90
4399;DHT22;2213;49.720;7.296;2023-09-19T15:15:59;20.50;99.90
4399;DHT22;2213;49.720;7.296;2023-09-19T15:18:28;20.60;99.90
4399;DHT22;2213;49.720;7.296;2023-09-19T15:21:02;20.70;99.90
4399;DHT22;2213;49.720;7.296;2023-09-19T15:23:33;20.60;99.90
4399;DHT22;2213;49.720;7.296;2023-09-19T15:26:04;20.60;99.90
4399;DHT22;2213;49.720;7.296;2023-09-19T15:28:34;20.50;99.90
4399;DHT22;2213;49.720;7.296;2023-09-19T15:31:08;20.70;99.90
4399;DHT22;2213;49.720;7.296;2023-09-19T15:33:39;20.80;99.90
4399;DHT22;2213;49.720;7.296;2023-09-19T15:36:10;20.90;99.90
4399;DHT22;2213;49.720;7.296;2023-09-19T15:39:04;20.80;99.90
4399;DHT22;2213;49.720;7.296;2023-09-19T15:41:38;21.00;99.90
4399;DHT22;2213;49.720;7.296;2023-09-19T15:44:13;21.00;99.90
4399;DHT22;2213;49.720;7.296;2023-09-19T15:46:44;20.70;99.90
4399;DHT22;2213;49.720;7.296;2023-09-19T15:49:14;20.60;99.90
4399;DHT22;2213;49.720;7.296;2023-09-19T15:51:44;20.60;99.90
4399;DHT22;2213;49.720;7.296;2023-09-19T15:54:14;20.60;99.90
4399;DHT22;2213;49.720;7.296;2023-09-19T15:56:44;20.50;99.90
4399;DHT22;2213;49.720;7.296;2023-09-19T15:59:16;20.60;99.90
4399;DHT22;2213;49.720;7.296;2023-09-19T16:01:46;20.50;99.90
4399;DHT22;2213;49.720;7.296;2023-09-19T16:04:16;20.40;99.90
4399;DHT22;2213;49.720;7.296;2023-09-19T16:06:48;20.40;99.90
4399;DHT22;2213;49.720;7.296;2023-09-19T16:09:17;20.30;99.90
4399;DHT22;2213;49.720;7.296;2023-09-19T16:11:46;20.20;99.90
4399;DHT22;2213;49.720;7.296;2023-09-19T16:14:17;20.10;99.90
4399;DHT22;2213;49.720;7.296;2023-09-19T16:16:47;20.20;99.90
4399;DHT22;2213;49.720;7.296;2023-09-19T16:19:17;20.10;99.90
4399;DHT22;2213;49.720;7.296;2023-09-19T16:21:49;20.10;99.90
4399;DHT22;2213;49.720;7.296;2023-09-19T16:24:19;20.10;99.90
4399;DHT22;2213;49.720;7.296;2023-09-19T16:26:48;20.00;99.90
4399;DHT22;2213;49.720;7.296;2023-09-19T16:29:19;19.80;99.90
4399;DHT22;2213;49.720;7.296;2023-09-19T16:31:51;19.80;99.90
4399;DHT22;2213;49.720;7.296;2023-09-19T16:34:22;19.90;99.90
4399;DHT22;2213;49.720;7.296;2023-09-19T16:36:54;19.90;99.90
4399;DHT22;2213;49.720;7.296;2023-09-19T16:39:23;20.00;99.90
4399;DHT22;2213;49.720;7.296;2023-09-19T16:41:54;20.00;99.90
4399;DHT22;2213;49.720;7.296;2023-09-19T16:44:22;19.80;99.90
4399;DHT22;2213;49.720;7.296;2023-09-19T16:46:51;19.80;99.90
4399;DHT22;2213;49.720;7.296;2023-09-19T16:49:20;19.80;99.90